Ambunti Airport


Codes: AUJ/AUJ
Name: Ambunti Airport
City: Ambunti
Country: Papua New Guinea
Elevation: 50 ft.

Photos at Ambunti Airport


   Photos courtesy of SpottingLog. You can add your own sightings and photos by signing up for a free trial today.



No photos found.

Weather at Ambunti Airport


Time (UTC)DescriptionTempratureWindCloud coverageVisibilityPressureHumidity
23-May-2024 21:00Light Rain23°C0 mph, W90%10000m1009hPa98%
24-May-2024 00:00Light Rain26°C2 mph, NW91%10000m1010hPa89%
24-May-2024 03:00Light Rain29°C0 mph, N75%10000m1008hPa79%
24-May-2024 06:00Light Rain30°C2 mph, NE77%10000m1006hPa70%
24-May-2024 09:00Moderate Rain24°C2 mph, E48%10000m1008hPa97%
24-May-2024 12:00Light Rain23°C2 mph, SE74%10000m1010hPa98%
24-May-2024 15:00Overcast Clouds23°C2 mph, SE89%10000m1010hPa99%
24-May-2024 18:00Broken Clouds23°C2 mph, SE84%10000m1009hPa99%
24-May-2024 21:00Scattered Clouds23°C0 mph, SW46%10000m1010hPa99%
25-May-2024 00:00Broken Clouds29°C2 mph, SW57%10000m1010hPa72%
25-May-2024 03:00Broken Clouds32°C4 mph, NE73%10000m1007hPa55%
25-May-2024 06:00Overcast Clouds30°C2 mph, NE86%10000m1006hPa64%
25-May-2024 09:00Light Rain26°C2 mph, E92%10000m1008hPa86%
25-May-2024 12:00Light Rain24°C2 mph, SE87%10000m1010hPa97%
25-May-2024 15:00Light Rain23°C2 mph, SE90%10000m1010hPa99%
25-May-2024 18:00Overcast Clouds23°C2 mph, SE89%10000m1009hPa98%
25-May-2024 21:00Light Rain23°C0 mph, NW92%10000m1010hPa99%
26-May-2024 00:00Light Rain28°C2 mph, NE75%10000m1011hPa75%
26-May-2024 03:00Light Rain29°C2 mph, SE67%7049m1008hPa78%
26-May-2024 06:00Moderate Rain28°C0 mph, E83%8781m1006hPa85%
26-May-2024 09:00Light Rain25°C2 mph, E100%10000m1008hPa94%
26-May-2024 12:00Light Rain24°C2 mph, E98%10000m1010hPa96%
26-May-2024 15:00Light Rain23°C2 mph, SE94%10000m1009hPa99%
26-May-2024 18:00Broken Clouds22°C2 mph, SE83%10000m1008hPa99%
26-May-2024 21:00Broken Clouds22°C0 mph, SW58%10000m1010hPa99%
27-May-2024 00:00Broken Clouds28°C0 mph, NW57%10000m1010hPa77%
27-May-2024 03:00Broken Clouds31°C4 mph, NE72%10000m1007hPa56%
27-May-2024 06:00Broken Clouds32°C2 mph, NE75%10000m1005hPa52%
27-May-2024 09:00Scattered Clouds27°C0 mph, SE50%10000m1007hPa78%
27-May-2024 12:00Light Rain24°C2 mph, E74%10000m1010hPa97%
27-May-2024 15:00Light Rain23°C2 mph, SE100%10000m1008hPa98%
27-May-2024 18:00Overcast Clouds23°C2 mph, E100%10000m1007hPa99%
27-May-2024 21:00Overcast Clouds23°C0 mph, SE90%10000m1009hPa98%
28-May-2024 00:00Broken Clouds29°C2 mph, E84%10000m1010hPa69%
28-May-2024 03:00Light Rain33°C2 mph, NE85%10000m1007hPa53%
28-May-2024 06:00Overcast Clouds31°C2 mph, E90%10000m1005hPa60%
28-May-2024 09:00Broken Clouds26°C2 mph, S79%10000m1007hPa83%
28-May-2024 12:00Broken Clouds24°C2 mph, E75%10000m1010hPa91%
28-May-2024 15:00Broken Clouds23°C2 mph, SE65%10000m1009hPa96%
28-May-2024 18:00Broken Clouds23°C2 mph, SE81%10000m1008hPa97%